Terminal Aerodrome Forecast
Issued by NWS Columbia, SC

Home | Current Version | Previous Version | Text Only | Print | Product List | Glossary On
Versions: 1 2 3 4 5 6 7 8 9 10 11 12 13 14 15 16 17 18 19 20 21 22 23 24 25 26 27
000
FTUS42 KCAE 201800 CCA
TAFCAE
TAF COR
KCAE 201800Z 2018/2118 05004KT P6SM SCT008 OVC015
      TEMPO 2018/2022 5SM BR BKN008
     FM202200 VRB03KT 5SM BR OVC008
     FM211200 05004KT P6SM BKN025=

USA.gov is the U.S. government's official web portal to all federal, state and local government web resources and services.